sensor_id;sensor_type;location;lat;lon;timestamp;temperature;humidity
10352;DHT22;5222;49.324;8.420;2022-07-29T00:01:38;27.80;74.60
10352;DHT22;5222;49.324;8.420;2022-07-29T00:04:05;27.70;75.20
10352;DHT22;5222;49.324;8.420;2022-07-29T00:06:31;27.60;75.20
10352;DHT22;5222;49.324;8.420;2022-07-29T00:08:58;27.60;75.30
10352;DHT22;5222;49.324;8.420;2022-07-29T00:11:26;27.50;75.60
10352;DHT22;5222;49.324;8.420;2022-07-29T00:13:53;27.30;76.00
10352;DHT22;5222;49.324;8.420;2022-07-29T00:16:20;27.30;76.20
10352;DHT22;5222;49.324;8.420;2022-07-29T00:18:47;27.20;76.50
10352;DHT22;5222;49.324;8.420;2022-07-29T00:21:14;27.10;76.90
10352;DHT22;5222;49.324;8.420;2022-07-29T00:23:40;27.00;77.30
10352;DHT22;5222;49.324;8.420;2022-07-29T00:26:07;26.90;77.90
10352;DHT22;5222;49.324;8.420;2022-07-29T00:28:35;26.70;77.90
10352;DHT22;5222;49.324;8.420;2022-07-29T00:31:02;26.70;78.00
10352;DHT22;5222;49.324;8.420;2022-07-29T00:33:29;26.70;78.10
10352;DHT22;5222;49.324;8.420;2022-07-29T00:35:56;26.60;78.40
10352;DHT22;5222;49.324;8.420;2022-07-29T00:38:21;26.70;78.50
10352;DHT22;5222;49.324;8.420;2022-07-29T00:40:48;26.80;78.30
10352;DHT22;5222;49.324;8.420;2022-07-29T00:43:16;26.80;78.30
10352;DHT22;5222;49.324;8.420;2022-07-29T00:45:45;26.80;78.30
10352;DHT22;5222;49.324;8.420;2022-07-29T00:48:11;26.70;78.90
10352;DHT22;5222;49.324;8.420;2022-07-29T00:50:38;26.50;78.70
10352;DHT22;5222;49.324;8.420;2022-07-29T00:53:07;26.40;79.10
10352;DHT22;5222;49.324;8.420;2022-07-29T00:55:34;26.40;79.10
10352;DHT22;5222;49.324;8.420;2022-07-29T00:58:01;26.30;78.90
10352;DHT22;5222;49.324;8.420;2022-07-29T01:00:28;26.30;78.80
10352;DHT22;5222;49.324;8.420;2022-07-29T01:02:56;26.20;78.90
10352;DHT22;5222;49.324;8.420;2022-07-29T01:05:25;26.10;79.30
10352;DHT22;5222;49.324;8.420;2022-07-29T01:07:53;26.00;79.40
10352;DHT22;5222;49.324;8.420;2022-07-29T01:10:21;26.00;79.50
10352;DHT22;5222;49.324;8.420;2022-07-29T01:12:50;26.00;79.50
10352;DHT22;5222;49.324;8.420;2022-07-29T01:15:18;26.00;79.40
10352;DHT22;5222;49.324;8.420;2022-07-29T01:17:50;26.10;79.40
10352;DHT22;5222;49.324;8.420;2022-07-29T01:20:24;26.10;79.50
10352;DHT22;5222;49.324;8.420;2022-07-29T01:23:08;26.10;79.60
10352;DHT22;5222;49.324;8.420;2022-07-29T01:28:47;26.20;79.30
10352;DHT22;5222;49.324;8.420;2022-07-29T01:31:18;26.10;79.60
10352;DHT22;5222;49.324;8.420;2022-07-29T01:33:50;26.10;79.60
10352;DHT22;5222;49.324;8.420;2022-07-29T01:36:25;26.10;79.80
10352;DHT22;5222;49.324;8.420;2022-07-29T01:38:58;26.10;79.90
10352;DHT22;5222;49.324;8.420;2022-07-29T01:41:30;26.10;80.00
10352;DHT22;5222;49.324;8.420;2022-07-29T01:44:02;26.00;80.40
10352;DHT22;5222;49.324;8.420;2022-07-29T01:46:34;26.00;80.50
10352;DHT22;5222;49.324;8.420;2022-07-29T01:49:07;25.90;80.90
10352;DHT22;5222;49.324;8.420;2022-07-29T01:51:40;25.70;81.10
10352;DHT22;5222;49.324;8.420;2022-07-29T01:54:12;25.70;81.40
10352;DHT22;5222;49.324;8.420;2022-07-29T01:56:39;25.60;81.40
10352;DHT22;5222;49.324;8.420;2022-07-29T01:59:10;25.60;81.50
10352;DHT22;5222;49.324;8.420;2022-07-29T02:01:39;25.60;81.70
10352;DHT22;5222;49.324;8.420;2022-07-29T02:04:09;25.50;81.80
10352;DHT22;5222;49.324;8.420;2022-07-29T02:06:38;25.50;81.90
10352;DHT22;5222;49.324;8.420;2022-07-29T02:09:07;25.50;82.10
10352;DHT22;5222;49.324;8.420;2022-07-29T02:11:37;25.50;82.10
10352;DHT22;5222;49.324;8.420;2022-07-29T02:14:05;25.50;82.30
10352;DHT22;5222;49.324;8.420;2022-07-29T02:16:35;25.40;82.60
10352;DHT22;5222;49.324;8.420;2022-07-29T02:19:04;25.30;82.80
10352;DHT22;5222;49.324;8.420;2022-07-29T02:21:35;25.20;82.80
10352;DHT22;5222;49.324;8.420;2022-07-29T02:24:02;25.20;83.10
10352;DHT22;5222;49.324;8.420;2022-07-29T02:26:32;25.10;83.40
10352;DHT22;5222;49.324;8.420;2022-07-29T02:29:00;25.00;83.70
10352;DHT22;5222;49.324;8.420;2022-07-29T02:31:31;25.00;83.50
10352;DHT22;5222;49.324;8.420;2022-07-29T02:34:01;25.00;83.90
10352;DHT22;5222;49.324;8.420;2022-07-29T02:36:29;24.90;84.00
10352;DHT22;5222;49.324;8.420;2022-07-29T02:38:57;24.90;84.00
10352;DHT22;5222;49.324;8.420;2022-07-29T02:41:28;24.90;84.20
10352;DHT22;5222;49.324;8.420;2022-07-29T02:43:58;24.80;84.30
10352;DHT22;5222;49.324;8.420;2022-07-29T02:46:31;24.80;84.30
10352;DHT22;5222;49.324;8.420;2022-07-29T02:49:05;24.70;84.90
10352;DHT22;5222;49.324;8.420;2022-07-29T02:51:40;24.70;84.90
10352;DHT22;5222;49.324;8.420;2022-07-29T02:54:09;24.60;84.90
10352;DHT22;5222;49.324;8.420;2022-07-29T02:56:38;24.50;85.10
10352;DHT22;5222;49.324;8.420;2022-07-29T02:59:09;24.40;85.20
10352;DHT22;5222;49.324;8.420;2022-07-29T03:01:40;24.40;85.30
10352;DHT22;5222;49.324;8.420;2022-07-29T03:04:09;24.30;85.50
10352;DHT22;5222;49.324;8.420;2022-07-29T03:06:38;24.30;85.60
10352;DHT22;5222;49.324;8.420;2022-07-29T03:09:06;24.30;85.40
10352;DHT22;5222;49.324;8.420;2022-07-29T03:11:35;24.30;85.50
10352;DHT22;5222;49.324;8.420;2022-07-29T03:14:02;24.30;85.30
10352;DHT22;5222;49.324;8.420;2022-07-29T03:16:30;24.30;85.40
10352;DHT22;5222;49.324;8.420;2022-07-29T03:18:58;24.30;85.30
10352;DHT22;5222;49.324;8.420;2022-07-29T03:21:26;24.30;85.50
10352;DHT22;5222;49.324;8.420;2022-07-29T03:23:52;24.30;85.50
10352;DHT22;5222;49.324;8.420;2022-07-29T03:26:19;24.30;85.40
10352;DHT22;5222;49.324;8.420;2022-07-29T03:28:46;24.30;85.20
10352;DHT22;5222;49.324;8.420;2022-07-29T03:31:13;24.30;85.10
10352;DHT22;5222;49.324;8.420;2022-07-29T03:33:40;24.30;84.70
10352;DHT22;5222;49.324;8.420;2022-07-29T03:36:06;24.30;84.50
10352;DHT22;5222;49.324;8.420;2022-07-29T03:38:35;24.30;84.00
10352;DHT22;5222;49.324;8.420;2022-07-29T03:41:07;24.30;84.30
10352;DHT22;5222;49.324;8.420;2022-07-29T03:43:37;24.20;84.40
10352;DHT22;5222;49.324;8.420;2022-07-29T03:46:06;24.20;84.30
10352;DHT22;5222;49.324;8.420;2022-07-29T03:48:36;24.20;84.30
10352;DHT22;5222;49.324;8.420;2022-07-29T03:51:03;24.20;84.70
10352;DHT22;5222;49.324;8.420;2022-07-29T03:53:31;24.20;84.70
10352;DHT22;5222;49.324;8.420;2022-07-29T03:56:00;24.10;85.00
10352;DHT22;5222;49.324;8.420;2022-07-29T03:58:30;24.00;85.30
10352;DHT22;5222;49.324;8.420;2022-07-29T04:00:58;23.90;85.30
10352;DHT22;5222;49.324;8.420;2022-07-29T04:03:25;23.90;85.30
10352;DHT22;5222;49.324;8.420;2022-07-29T04:06:00;23.90;85.10
10352;DHT22;5222;49.324;8.420;2022-07-29T04:08:27;23.90;85.10
10352;DHT22;5222;49.324;8.420;2022-07-29T04:10:54;23.90;84.80
10352;DHT22;5222;49.324;8.420;2022-07-29T04:13:22;23.90;84.60
10352;DHT22;5222;49.324;8.420;2022-07-29T04:15:49;23.90;84.60
10352;DHT22;5222;49.324;8.420;2022-07-29T04:18:16;23.90;84.40
10352;DHT22;5222;49.324;8.420;2022-07-29T04:20:43;23.90;84.30
10352;DHT22;5222;49.324;8.420;2022-07-29T04:23:10;23.90;84.20
10352;DHT22;5222;49.324;8.420;2022-07-29T04:25:37;23.90;84.20
10352;DHT22;5222;49.324;8.420;2022-07-29T04:28:05;23.90;84.00
10352;DHT22;5222;49.324;8.420;2022-07-29T04:30:34;23.90;83.90
10352;DHT22;5222;49.324;8.420;2022-07-29T04:33:02;24.00;83.80
10352;DHT22;5222;49.324;8.420;2022-07-29T04:35:30;24.00;83.80
10352;DHT22;5222;49.324;8.420;2022-07-29T04:37:57;24.00;83.50
10352;DHT22;5222;49.324;8.420;2022-07-29T04:40:24;24.00;83.70
10352;DHT22;5222;49.324;8.420;2022-07-29T04:42:51;24.10;83.60
10352;DHT22;5222;49.324;8.420;2022-07-29T04:45:18;24.10;83.40
10352;DHT22;5222;49.324;8.420;2022-07-29T04:47:46;24.20;83.50
10352;DHT22;5222;49.324;8.420;2022-07-29T04:50:12;24.30;83.10
10352;DHT22;5222;49.324;8.420;2022-07-29T04:52:39;24.50;82.90
10352;DHT22;5222;49.324;8.420;2022-07-29T04:55:06;24.60;82.50
10352;DHT22;5222;49.324;8.420;2022-07-29T04:57:33;24.80;82.60
10352;DHT22;5222;49.324;8.420;2022-07-29T05:00:00;24.80;82.30
10352;DHT22;5222;49.324;8.420;2022-07-29T05:02:27;24.90;82.40
10352;DHT22;5222;49.324;8.420;2022-07-29T05:04:55;25.10;82.10
10352;DHT22;5222;49.324;8.420;2022-07-29T05:07:22;25.20;81.80
10352;DHT22;5222;49.324;8.420;2022-07-29T05:09:48;25.30;81.50
10352;DHT22;5222;49.324;8.420;2022-07-29T05:12:15;25.40;81.40
10352;DHT22;5222;49.324;8.420;2022-07-29T05:14:42;25.50;81.10
10352;DHT22;5222;49.324;8.420;2022-07-29T05:17:09;25.60;80.90
10352;DHT22;5222;49.324;8.420;2022-07-29T05:19:35;25.60;80.40
10352;DHT22;5222;49.324;8.420;2022-07-29T05:22:03;25.60;80.20
10352;DHT22;5222;49.324;8.420;2022-07-29T05:24:31;25.70;80.10
10352;DHT22;5222;49.324;8.420;2022-07-29T05:26:58;25.90;79.90
10352;DHT22;5222;49.324;8.420;2022-07-29T05:29:24;26.00;79.70
10352;DHT22;5222;49.324;8.420;2022-07-29T05:31:51;26.20;79.60
10352;DHT22;5222;49.324;8.420;2022-07-29T05:34:18;26.40;79.20
10352;DHT22;5222;49.324;8.420;2022-07-29T05:36:45;26.40;79.10
10352;DHT22;5222;49.324;8.420;2022-07-29T05:39:13;26.50;78.70
10352;DHT22;5222;49.324;8.420;2022-07-29T05:41:40;26.60;78.70
10352;DHT22;5222;49.324;8.420;2022-07-29T05:44:07;26.80;78.20
10352;DHT22;5222;49.324;8.420;2022-07-29T05:46:34;27.00;78.10
10352;DHT22;5222;49.324;8.420;2022-07-29T05:49:00;27.00;77.90
10352;DHT22;5222;49.324;8.420;2022-07-29T05:51:28;27.10;77.70
10352;DHT22;5222;49.324;8.420;2022-07-29T05:53:55;27.30;77.30
10352;DHT22;5222;49.324;8.420;2022-07-29T05:56:23;27.40;77.60
10352;DHT22;5222;49.324;8.420;2022-07-29T05:58:50;27.40;77.70
10352;DHT22;5222;49.324;8.420;2022-07-29T06:01:17;27.40;77.70
10352;DHT22;5222;49.324;8.420;2022-07-29T06:03:43;27.40;77.40
10352;DHT22;5222;49.324;8.420;2022-07-29T06:06:10;27.40;77.50
10352;DHT22;5222;49.324;8.420;2022-07-29T06:08:37;27.40;77.50
10352;DHT22;5222;49.324;8.420;2022-07-29T06:11:06;27.50;77.90
10352;DHT22;5222;49.324;8.420;2022-07-29T06:13:35;27.80;77.40
10352;DHT22;5222;49.324;8.420;2022-07-29T06:16:02;28.10;77.00
10352;DHT22;5222;49.324;8.420;2022-07-29T06:18:29;28.30;76.70
10352;DHT22;5222;49.324;8.420;2022-07-29T06:20:56;28.50;76.30
10352;DHT22;5222;49.324;8.420;2022-07-29T06:23:23;28.90;75.70
10352;DHT22;5222;49.324;8.420;2022-07-29T06:25:50;29.40;75.20
10352;DHT22;5222;49.324;8.420;2022-07-29T06:28:16;29.70;74.40
10352;DHT22;5222;49.324;8.420;2022-07-29T06:30:44;29.70;74.70
10352;DHT22;5222;49.324;8.420;2022-07-29T06:33:16;29.70;74.50
10352;DHT22;5222;49.324;8.420;2022-07-29T06:35:43;29.90;74.50
10352;DHT22;5222;49.324;8.420;2022-07-29T06:38:10;30.00;74.60
10352;DHT22;5222;49.324;8.420;2022-07-29T06:40:41;29.90;74.80
10352;DHT22;5222;49.324;8.420;2022-07-29T06:43:25;29.70;75.70
10352;DHT22;5222;49.324;8.420;2022-07-29T06:45:53;29.60;76.10
10352;DHT22;5222;49.324;8.420;2022-07-29T06:48:20;29.50;76.30
10352;DHT22;5222;49.324;8.420;2022-07-29T06:50:46;29.30;77.00
10352;DHT22;5222;49.324;8.420;2022-07-29T06:53:13;29.10;77.60
10352;DHT22;5222;49.324;8.420;2022-07-29T06:55:40;29.00;78.10
10352;DHT22;5222;49.324;8.420;2022-07-29T06:58:07;28.90;78.60
10352;DHT22;5222;49.324;8.420;2022-07-29T07:00:34;28.80;78.90
10352;DHT22;5222;49.324;8.420;2022-07-29T07:03:03;28.90;79.10
10352;DHT22;5222;49.324;8.420;2022-07-29T07:05:29;28.70;79.20
10352;DHT22;5222;49.324;8.420;2022-07-29T07:07:56;28.60;79.90
10352;DHT22;5222;49.324;8.420;2022-07-29T07:10:23;28.80;79.90
10352;DHT22;5222;49.324;8.420;2022-07-29T07:12:50;28.90;80.70
10352;DHT22;5222;49.324;8.420;2022-07-29T07:15:16;29.30;80.30
10352;DHT22;5222;49.324;8.420;2022-07-29T07:17:47;29.60;79.70
10352;DHT22;5222;49.324;8.420;2022-07-29T07:20:15;29.70;79.50
10352;DHT22;5222;49.324;8.420;2022-07-29T07:22:42;29.50;80.70
10352;DHT22;5222;49.324;8.420;2022-07-29T07:25:08;29.40;81.50
10352;DHT22;5222;49.324;8.420;2022-07-29T07:27:36;29.60;81.00
10352;DHT22;5222;49.324;8.420;2022-07-29T07:30:04;29.90;80.70
10352;DHT22;5222;49.324;8.420;2022-07-29T07:32:32;30.10;79.90
10352;DHT22;5222;49.324;8.420;2022-07-29T07:34:59;30.50;79.20
10352;DHT22;5222;49.324;8.420;2022-07-29T07:37:27;30.70;79.00
10352;DHT22;5222;49.324;8.420;2022-07-29T07:39:54;31.10;78.20
10352;DHT22;5222;49.324;8.420;2022-07-29T07:42:20;31.10;77.70
10352;DHT22;5222;49.324;8.420;2022-07-29T07:44:47;31.20;78.00
10352;DHT22;5222;49.324;8.420;2022-07-29T07:47:14;31.20;78.30
10352;DHT22;5222;49.324;8.420;2022-07-29T07:49:45;31.10;78.20
10352;DHT22;5222;49.324;8.420;2022-07-29T07:52:11;31.40;77.90
10352;DHT22;5222;49.324;8.420;2022-07-29T07:54:40;31.70;77.40
10352;DHT22;5222;49.324;8.420;2022-07-29T07:57:06;31.90;76.90
10352;DHT22;5222;49.324;8.420;2022-07-29T07:59:33;32.20;77.00
10352;DHT22;5222;49.324;8.420;2022-07-29T08:02:00;32.40;75.80
10352;DHT22;5222;49.324;8.420;2022-07-29T08:04:26;32.70;75.50
10352;DHT22;5222;49.324;8.420;2022-07-29T08:06:53;32.70;75.50
10352;DHT22;5222;49.324;8.420;2022-07-29T08:09:20;32.70;75.70
10352;DHT22;5222;49.324;8.420;2022-07-29T08:11:48;33.20;74.90
10352;DHT22;5222;49.324;8.420;2022-07-29T08:14:15;33.70;74.30
10352;DHT22;5222;49.324;8.420;2022-07-29T08:16:42;34.20;73.30
10352;DHT22;5222;49.324;8.420;2022-07-29T08:19:09;34.20;73.00
10352;DHT22;5222;49.324;8.420;2022-07-29T08:21:36;33.90;73.70
10352;DHT22;5222;49.324;8.420;2022-07-29T08:24:04;33.70;74.00
10352;DHT22;5222;49.324;8.420;2022-07-29T08:26:50;33.70;74.00
10352;DHT22;5222;49.324;8.420;2022-07-29T08:29:17;33.80;74.00
10352;DHT22;5222;49.324;8.420;2022-07-29T08:31:44;34.10;73.50
10352;DHT22;5222;49.324;8.420;2022-07-29T08:34:11;34.30;73.00
10352;DHT22;5222;49.324;8.420;2022-07-29T08:36:38;34.20;73.30
10352;DHT22;5222;49.324;8.420;2022-07-29T08:39:05;34.20;73.00
10352;DHT22;5222;49.324;8.420;2022-07-29T08:41:32;33.80;73.30
10352;DHT22;5222;49.324;8.420;2022-07-29T08:44:00;33.80;73.40
10352;DHT22;5222;49.324;8.420;2022-07-29T08:46:27;34.00;73.30
10352;DHT22;5222;49.324;8.420;2022-07-29T08:48:55;34.30;72.80
10352;DHT22;5222;49.324;8.420;2022-07-29T08:51:23;34.90;72.30
10352;DHT22;5222;49.324;8.420;2022-07-29T08:53:51;35.40;71.40
10352;DHT22;5222;49.324;8.420;2022-07-29T08:56:20;35.50;70.80
10352;DHT22;5222;49.324;8.420;2022-07-29T08:58:48;35.50;70.90
10352;DHT22;5222;49.324;8.420;2022-07-29T09:01:23;35.30;70.70
10352;DHT22;5222;49.324;8.420;2022-07-29T09:03:55;35.10;70.80
10352;DHT22;5222;49.324;8.420;2022-07-29T09:06:22;35.20;71.00
10352;DHT22;5222;49.324;8.420;2022-07-29T09:08:54;35.50;70.60
10352;DHT22;5222;49.324;8.420;2022-07-29T09:11:24;35.50;70.20
10352;DHT22;5222;49.324;8.420;2022-07-29T09:13:51;35.60;70.10
10352;DHT22;5222;49.324;8.420;2022-07-29T09:16:19;36.00;68.90
10352;DHT22;5222;49.324;8.420;2022-07-29T09:18:46;36.00;69.10
10352;DHT22;5222;49.324;8.420;2022-07-29T09:21:14;36.20;68.70
10352;DHT22;5222;49.324;8.420;2022-07-29T09:24:00;36.30;68.30
10352;DHT22;5222;49.324;8.420;2022-07-29T09:26:28;36.30;68.10
10352;DHT22;5222;49.324;8.420;2022-07-29T09:28:56;36.10;68.80
10352;DHT22;5222;49.324;8.420;2022-07-29T09:31:32;35.70;69.20
10352;DHT22;5222;49.324;8.420;2022-07-29T09:33:59;35.40;69.50
10352;DHT22;5222;49.324;8.420;2022-07-29T09:36:26;35.40;69.50
10352;DHT22;5222;49.324;8.420;2022-07-29T09:39:00;35.60;69.00
10352;DHT22;5222;49.324;8.420;2022-07-29T09:41:28;35.80;68.60
10352;DHT22;5222;49.324;8.420;2022-07-29T09:43:56;35.70;68.60
10352;DHT22;5222;49.324;8.420;2022-07-29T09:46:25;35.40;69.20
10352;DHT22;5222;49.324;8.420;2022-07-29T09:49:09;35.30;69.10
10352;DHT22;5222;49.324;8.420;2022-07-29T09:51:37;35.20;69.00
10352;DHT22;5222;49.324;8.420;2022-07-29T09:54:21;35.30;68.20
10352;DHT22;5222;49.324;8.420;2022-07-29T09:56:49;35.20;68.30
10352;DHT22;5222;49.324;8.420;2022-07-29T09:59:16;34.90;68.40
10352;DHT22;5222;49.324;8.420;2022-07-29T10:01:42;34.50;69.90
10352;DHT22;5222;49.324;8.420;2022-07-29T10:04:10;34.20;69.60
10352;DHT22;5222;49.324;8.420;2022-07-29T10:06:55;34.40;68.90
10352;DHT22;5222;49.324;8.420;2022-07-29T10:09:22;34.40;68.50
10352;DHT22;5222;49.324;8.420;2022-07-29T10:12:03;34.30;68.70
10352;DHT22;5222;49.324;8.420;2022-07-29T10:14:32;34.70;68.90
10352;DHT22;5222;49.324;8.420;2022-07-29T10:16:59;34.80;68.20
10352;DHT22;5222;49.324;8.420;2022-07-29T10:19:28;35.10;67.60
10352;DHT22;5222;49.324;8.420;2022-07-29T10:21:56;35.30;67.50
10352;DHT22;5222;49.324;8.420;2022-07-29T10:24:24;35.70;67.30
10352;DHT22;5222;49.324;8.420;2022-07-29T10:26:53;36.20;65.80
10352;DHT22;5222;49.324;8.420;2022-07-29T10:29:21;36.70;65.00
10352;DHT22;5222;49.324;8.420;2022-07-29T10:31:52;37.20;64.50
10352;DHT22;5222;49.324;8.420;2022-07-29T10:34:33;37.70;63.20
10352;DHT22;5222;49.324;8.420;2022-07-29T10:37:08;37.60;63.40
10352;DHT22;5222;49.324;8.420;2022-07-29T10:39:50;37.70;63.20
10352;DHT22;5222;49.324;8.420;2022-07-29T10:42:21;37.90;62.90
10352;DHT22;5222;49.324;8.420;2022-07-29T10:44:50;38.20;62.60
10352;DHT22;5222;49.324;8.420;2022-07-29T10:47:21;38.20;62.80
10352;DHT22;5222;49.324;8.420;2022-07-29T10:50:00;38.20;62.10
10352;DHT22;5222;49.324;8.420;2022-07-29T10:52:51;38.40;62.30
10352;DHT22;5222;49.324;8.420;2022-07-29T10:55:35;38.50;61.70
10352;DHT22;5222;49.324;8.420;2022-07-29T10:58:16;38.70;61.80
10352;DHT22;5222;49.324;8.420;2022-07-29T11:00:44;38.50;62.60
10352;DHT22;5222;49.324;8.420;2022-07-29T11:03:42;38.30;62.40
10352;DHT22;5222;49.324;8.420;2022-07-29T11:06:12;38.20;62.50
10352;DHT22;5222;49.324;8.420;2022-07-29T11:08:40;38.80;62.00
10352;DHT22;5222;49.324;8.420;2022-07-29T11:11:31;39.30;61.30
10352;DHT22;5222;49.324;8.420;2022-07-29T11:13:58;39.30;60.90
10352;DHT22;5222;49.324;8.420;2022-07-29T11:16:25;39.00;61.30
10352;DHT22;5222;49.324;8.420;2022-07-29T11:19:20;39.00;61.10
10352;DHT22;5222;49.324;8.420;2022-07-29T11:21:49;39.20;61.40
10352;DHT22;5222;49.324;8.420;2022-07-29T11:24:18;39.20;60.50
10352;DHT22;5222;49.324;8.420;2022-07-29T11:27:09;38.90;61.00
10352;DHT22;5222;49.324;8.420;2022-07-29T11:29:40;38.90;61.80
10352;DHT22;5222;49.324;8.420;2022-07-29T11:32:11;38.90;60.80
10352;DHT22;5222;49.324;8.420;2022-07-29T11:34:39;39.00;60.80
10352;DHT22;5222;49.324;8.420;2022-07-29T11:37:23;39.00;61.00
10352;DHT22;5222;49.324;8.420;2022-07-29T11:40:14;38.80;60.50
10352;DHT22;5222;49.324;8.420;2022-07-29T11:42:43;38.40;61.80
10352;DHT22;5222;49.324;8.420;2022-07-29T11:45:12;37.80;62.00
10352;DHT22;5222;49.324;8.420;2022-07-29T11:47:47;37.70;62.30
10352;DHT22;5222;49.324;8.420;2022-07-29T11:50:16;38.20;61.30
10352;DHT22;5222;49.324;8.420;2022-07-29T11:52:46;38.60;60.80
10352;DHT22;5222;49.324;8.420;2022-07-29T11:55:14;39.00;60.30
10352;DHT22;5222;49.324;8.420;2022-07-29T11:57:49;38.90;60.50
10352;DHT22;5222;49.324;8.420;2022-07-29T12:00:26;38.40;60.70
10352;DHT22;5222;49.324;8.420;2022-07-29T12:02:54;38.40;60.50
10352;DHT22;5222;49.324;8.420;2022-07-29T12:05:29;38.70;60.60
10352;DHT22;5222;49.324;8.420;2022-07-29T12:08:04;38.90;60.90
10352;DHT22;5222;49.324;8.420;2022-07-29T12:10:31;39.20;59.70
10352;DHT22;5222;49.324;8.420;2022-07-29T12:12:58;39.50;59.70
10352;DHT22;5222;49.324;8.420;2022-07-29T12:15:25;39.60;58.70
10352;DHT22;5222;49.324;8.420;2022-07-29T12:17:52;39.60;58.40
10352;DHT22;5222;49.324;8.420;2022-07-29T12:20:23;39.60;58.60
10352;DHT22;5222;49.324;8.420;2022-07-29T12:22:50;39.30;58.90
10352;DHT22;5222;49.324;8.420;2022-07-29T12:25:21;38.80;60.10
10352;DHT22;5222;49.324;8.420;2022-07-29T12:27:58;38.10;60.70
10352;DHT22;5222;49.324;8.420;2022-07-29T12:30:38;38.10;61.30
10352;DHT22;5222;49.324;8.420;2022-07-29T12:33:17;38.10;61.40
10352;DHT22;5222;49.324;8.420;2022-07-29T12:35:46;37.90;62.10
10352;DHT22;5222;49.324;8.420;2022-07-29T12:38:14;37.60;61.70
10352;DHT22;5222;49.324;8.420;2022-07-29T12:40:44;37.30;62.30
10352;DHT22;5222;49.324;8.420;2022-07-29T12:43:13;37.20;62.70
10352;DHT22;5222;49.324;8.420;2022-07-29T12:45:42;36.70;63.30
10352;DHT22;5222;49.324;8.420;2022-07-29T12:48:09;36.00;63.70
10352;DHT22;5222;49.324;8.420;2022-07-29T12:50:51;35.70;64.10
10352;DHT22;5222;49.324;8.420;2022-07-29T12:53:18;35.50;64.10
10352;DHT22;5222;49.324;8.420;2022-07-29T12:55:48;35.50;64.00
10352;DHT22;5222;49.324;8.420;2022-07-29T12:58:26;35.30;64.60
10352;DHT22;5222;49.324;8.420;2022-07-29T13:01:07;35.10;64.60
10352;DHT22;5222;49.324;8.420;2022-07-29T13:03:45;35.10;64.70
10352;DHT22;5222;49.324;8.420;2022-07-29T13:06:28;35.20;65.10
10352;DHT22;5222;49.324;8.420;2022-07-29T13:08:59;35.40;64.30
10352;DHT22;5222;49.324;8.420;2022-07-29T13:11:32;35.20;64.10
10352;DHT22;5222;49.324;8.420;2022-07-29T13:13:59;35.10;64.10
10352;DHT22;5222;49.324;8.420;2022-07-29T13:16:25;35.30;64.40
10352;DHT22;5222;49.324;8.420;2022-07-29T13:19:06;35.40;63.60
10352;DHT22;5222;49.324;8.420;2022-07-29T13:21:34;35.70;62.20
10352;DHT22;5222;49.324;8.420;2022-07-29T13:24:00;35.70;60.00
10352;DHT22;5222;49.324;8.420;2022-07-29T13:26:27;35.80;59.80
10352;DHT22;5222;49.324;8.420;2022-07-29T13:28:55;35.50;60.50
10352;DHT22;5222;49.324;8.420;2022-07-29T13:31:22;35.30;61.70
10352;DHT22;5222;49.324;8.420;2022-07-29T13:33:49;35.40;62.50
10352;DHT22;5222;49.324;8.420;2022-07-29T13:36:16;35.50;62.70
10352;DHT22;5222;49.324;8.420;2022-07-29T13:38:43;35.60;61.70
10352;DHT22;5222;49.324;8.420;2022-07-29T13:41:09;36.00;61.70
10352;DHT22;5222;49.324;8.420;2022-07-29T13:43:36;36.20;61.30
10352;DHT22;5222;49.324;8.420;2022-07-29T13:46:04;36.50;60.70
10352;DHT22;5222;49.324;8.420;2022-07-29T13:48:31;36.70;60.00
10352;DHT22;5222;49.324;8.420;2022-07-29T13:50:58;37.00;59.70
10352;DHT22;5222;49.324;8.420;2022-07-29T13:53:24;37.00;59.90
10352;DHT22;5222;49.324;8.420;2022-07-29T13:55:53;36.80;60.30
10352;DHT22;5222;49.324;8.420;2022-07-29T13:58:20;36.60;60.30
10352;DHT22;5222;49.324;8.420;2022-07-29T14:00:46;36.70;60.30
10352;DHT22;5222;49.324;8.420;2022-07-29T14:03:15;36.50;60.60
10352;DHT22;5222;49.324;8.420;2022-07-29T14:05:41;36.50;60.90
10352;DHT22;5222;49.324;8.420;2022-07-29T14:08:08;36.50;61.60
10352;DHT22;5222;49.324;8.420;2022-07-29T14:10:35;36.30;61.90
10352;DHT22;5222;49.324;8.420;2022-07-29T14:13:02;36.00;61.30
10352;DHT22;5222;49.324;8.420;2022-07-29T14:15:28;35.70;61.50
10352;DHT22;5222;49.324;8.420;2022-07-29T14:17:55;35.80;61.40
10352;DHT22;5222;49.324;8.420;2022-07-29T14:20:23;35.80;61.20
10352;DHT22;5222;49.324;8.420;2022-07-29T14:22:50;36.10;60.80
10352;DHT22;5222;49.324;8.420;2022-07-29T14:25:17;36.30;60.40
10352;DHT22;5222;49.324;8.420;2022-07-29T14:27:44;36.30;60.50
10352;DHT22;5222;49.324;8.420;2022-07-29T14:30:11;36.50;60.30
10352;DHT22;5222;49.324;8.420;2022-07-29T14:32:38;36.30;60.30
10352;DHT22;5222;49.324;8.420;2022-07-29T14:35:05;36.30;60.10
10352;DHT22;5222;49.324;8.420;2022-07-29T14:37:34;36.40;59.90
10352;DHT22;5222;49.324;8.420;2022-07-29T14:40:02;36.10;59.50
10352;DHT22;5222;49.324;8.420;2022-07-29T14:42:29;35.90;59.40
10352;DHT22;5222;49.324;8.420;2022-07-29T14:44:56;36.00;59.20
10352;DHT22;5222;49.324;8.420;2022-07-29T14:47:23;36.10;58.80
10352;DHT22;5222;49.324;8.420;2022-07-29T14:49:50;36.20;59.10
10352;DHT22;5222;49.324;8.420;2022-07-29T14:52:17;36.40;58.70
10352;DHT22;5222;49.324;8.420;2022-07-29T14:54:45;36.60;58.40
10352;DHT22;5222;49.324;8.420;2022-07-29T14:57:11;36.70;58.60
10352;DHT22;5222;49.324;8.420;2022-07-29T14:59:38;36.90;58.30
10352;DHT22;5222;49.324;8.420;2022-07-29T15:02:05;37.10;58.00
10352;DHT22;5222;49.324;8.420;2022-07-29T15:04:31;37.30;58.00
10352;DHT22;5222;49.324;8.420;2022-07-29T15:06:58;37.10;57.90
10352;DHT22;5222;49.324;8.420;2022-07-29T15:09:25;37.20;57.80
10352;DHT22;5222;49.324;8.420;2022-07-29T15:11:53;37.30;58.00
10352;DHT22;5222;49.324;8.420;2022-07-29T15:14:19;37.40;57.40
10352;DHT22;5222;49.324;8.420;2022-07-29T15:16:46;37.40;57.50
10352;DHT22;5222;49.324;8.420;2022-07-29T15:19:13;37.00;58.30
10352;DHT22;5222;49.324;8.420;2022-07-29T15:21:40;36.60;58.40
10352;DHT22;5222;49.324;8.420;2022-07-29T15:24:07;36.30;58.00
10352;DHT22;5222;49.324;8.420;2022-07-29T15:26:33;36.40;59.30
10352;DHT22;5222;49.324;8.420;2022-07-29T15:29:02;36.60;58.30
10352;DHT22;5222;49.324;8.420;2022-07-29T15:31:29;36.70;58.70
10352;DHT22;5222;49.324;8.420;2022-07-29T15:33:56;36.80;58.50
10352;DHT22;5222;49.324;8.420;2022-07-29T15:36:22;36.80;57.90
10352;DHT22;5222;49.324;8.420;2022-07-29T15:38:51;36.70;57.60
10352;DHT22;5222;49.324;8.420;2022-07-29T15:41:18;36.50;57.40
10352;DHT22;5222;49.324;8.420;2022-07-29T15:43:45;36.60;57.60
10352;DHT22;5222;49.324;8.420;2022-07-29T15:46:15;36.60;57.90
10352;DHT22;5222;49.324;8.420;2022-07-29T15:49:01;36.60;58.00
10352;DHT22;5222;49.324;8.420;2022-07-29T15:51:28;36.40;57.50
10352;DHT22;5222;49.324;8.420;2022-07-29T15:53:55;36.20;57.60
10352;DHT22;5222;49.324;8.420;2022-07-29T15:56:22;36.30;57.60
10352;DHT22;5222;49.324;8.420;2022-07-29T15:58:49;35.90;57.80
10352;DHT22;5222;49.324;8.420;2022-07-29T16:01:18;35.90;57.70